Home   Weather   Germany   St. Wendel   Past weeks
Flag for Germany

Past Weather in St. Wendel, Saarland, Germany — Yesterday and Last 2 Weeks

Currently: 70 °F. Passing clouds. (Weather station: Saarbruecken / Ensheim, Germany). See more current weather

Past Weather in St. Wendel — Graph

°F

St. Wendel Temperature Yesterday

Maximum temperature yesterday: 81 °F (at 3:50 pm)
Minimum temperature yesterday: 57 °F (at 5:50 am)
Average temperature yesterday: 69 °F

High & Low Weather Summary for the Past Weeks

 TemperatureHumidityPressure
High81 °F (Jul 18, 3:50 pm)100% (Jul 10, 12:50 am)30.24 "Hg (Jul 10, 12:50 am)
Low54 °F (Jul 10, 3:20 am)39% (Jul 23, 4:20 pm)29.80 "Hg (Jul 12, 10:20 am)
Average65 °F77%30.04 "Hg
* Reported Jul 9 1:20 pm — Jul 24 1:20 pm, St. Wendel. Weather by CustomWeather, © 2021

Note: Actual official high and low records may vary slightly from our data, if they occured in-between our weather recording intervals... More about our weather records

St. Wendel Weather History for the Previous 24 Hours

Scroll right to see more
 ConditionsComfort  
Time TempWeatherWind HumidityBarometerVisibility
1:20 pm
Sat, Jul 24
68 °FPassing clouds.8 mph88%29.86 "HgN/A
12:50 pm68 °FPassing clouds.6 mph88%29.86 "HgN/A
12:20 pm66 °FSprinkles. Passing clouds.7 mph94%29.86 "HgN/A
11:50 am66 °FPassing clouds.9 mph88%29.83 "HgN/A
11:20 am66 °FSprinkles. Broken clouds.10 mph88%29.86 "HgN/A
10:50 am66 °FScattered clouds.9 mph88%29.83 "HgN/A
10:20 am68 °FScattered clouds.8 mph88%29.83 "HgN/A
9:50 am64 °FBroken clouds.3 mph94%29.83 "HgN/A
9:20 am64 °FPassing clouds.2 mph94%29.83 "HgN/A
8:50 am64 °FSprinkles. Partly sunny.6 mph88%29.83 "HgN/A
8:20 am66 °FSprinkles. Passing clouds.10 mph78%29.86 "HgN/A
7:50 am68 °FScattered showers. Passing clouds.8 mph69%29.86 "HgN/A
7:20 am68 °FSunny.10 mph69%29.83 "Hg10 mi
6:50 am64 °FPassing clouds.5 mph78%29.83 "HgN/A
6:20 am64 °FPassing clouds.5 mph78%29.83 "HgN/A
5:50 am63 °FPassing clouds.3 mph83%29.83 "HgN/A
5:20 am63 °FClear.5 mph83%29.83 "Hg10 mi
4:50 am63 °FPassing clouds.5 mph83%29.83 "HgN/A
4:20 am63 °FPassing clouds.9 mph77%29.80 "HgN/A
3:50 am64 °FPassing clouds.10 mph73%29.80 "HgN/A
3:20 am64 °FClear.12 mph68%29.83 "Hg10 mi
2:50 am64 °FClear.12 mph68%29.83 "Hg10 mi
2:20 am64 °FClear.12 mph68%29.83 "Hg10 mi
1:50 am66 °FPassing clouds.6 mph64%29.86 "HgN/A
1:20 am66 °FPassing clouds.7 mph64%29.86 "HgN/A
12:50 am66 °FClear.8 mph64%29.86 "Hg10 mi
12:20 am66 °FClear.8 mph64%29.89 "Hg10 mi
11:50 pm
Fri, Jul 23
66 °FClear.9 mph64%29.89 "Hg10 mi
11:20 pm66 °FClear.7 mph64%29.89 "Hg10 mi
10:50 pm66 °FClear.9 mph64%29.89 "Hg10 mi
10:20 pm66 °FClear.8 mph64%29.89 "Hg10 mi
9:50 pm68 °FClear.8 mph64%29.89 "Hg10 mi
9:20 pm70 °FPassing clouds.6 mph60%29.89 "HgN/A
8:50 pm72 °FSunny.7 mph57%29.89 "Hg10 mi
8:20 pm73 °FPassing clouds.7 mph53%29.89 "HgN/A
7:50 pm75 °FSunny.8 mph50%29.89 "Hg10 mi
7:20 pm77 °FSunny.7 mph47%29.92 "Hg10 mi
6:50 pm79 °FPassing clouds.7 mph48%29.92 "HgN/A
6:20 pm79 °FPassing clouds.6 mph48%29.92 "HgN/A
5:50 pm79 °FPassing clouds.6 mph45%29.95 "HgN/A
5:20 pm79 °FPassing clouds.6 mph48%29.95 "HgN/A
4:50 pm81 °FPassing clouds.7 mph42%29.95 "HgN/A
4:20 pm81 °FPassing clouds.5 mph39%29.95 "HgN/A
3:50 pm81 °FPassing clouds.6 mph42%29.98 "HgN/A
3:20 pm79 °FPassing clouds.6 mph45%29.98 "HgN/A
2:50 pm77 °FPassing clouds.7 mph47%29.98 "HgN/A
2:20 pm77 °FPassing clouds.6 mph47%29.98 "HgN/A
Weather by CustomWeather, © 2021

See weather overview